This is the latest recevied weather packets stored in our database for station/object K8JMX-13. If no packets are shown the sender has not sent any weather packets the latest 1 day(s).
| Time | Temp. | Humidity | Pressure | Rain* | Wind** | Luminosity | Snow |
|---|---|---|---|---|---|---|---|
| 1836274679 | 23.33° C | 62% | 1018.2 hPa | 0 mm | 0.45 m/s, 23° | 0 W/m² | - |
| 1836274532 | 22.78° C | 63% | 1018.2 hPa | 0 mm | 0 m/s | 0 W/m² | - |
| 1836274377 | 23.33° C | 62% | 1018.2 hPa | 0 mm | 0.45 m/s, 17° | 0 W/m² | - |
| 1836274231 | 22.78° C | 62% | 1018.3 hPa | 0 mm | 0.45 m/s, 20° | 0 W/m² | - |
| 1836274075 | 23.33° C | 61% | 1018.2 hPa | 0 mm | 0 m/s | 0 W/m² | - |
| 1778042214 | 10° C | 91% | 1006.1 hPa | 0 mm | 1.79 m/s, 45° | 0 W/m² | - |
| 1778041912 | 10° C | 91% | 1006.1 hPa | 0 mm | 1.79 m/s, 46° | 0 W/m² | - |
| 1778041611 | 10° C | 91% | 1006.4 hPa | 0 mm | 0.89 m/s, 12° | 0 W/m² | - |
| 1778041309 | 10° C | 91% | 1006.3 hPa | 0 mm | 0.89 m/s, 65° | 0 W/m² | - |
| 1778041007 | 10° C | 91% | 1006.3 hPa | 0 mm | 0 m/s | 0 W/m² | - |
| 1778040703 | 10° C | 91% | 1006.1 hPa | 0 mm | 0 m/s | 0 W/m² | - |
| 1778040401 | 10° C | 91% | 1006.4 hPa | 0 mm | 1.34 m/s, 58° | 0 W/m² | - |
| 1778040098 | 10° C | 91% | 1006.3 hPa | 0 mm | 1.79 m/s, 49° | 0 W/m² | - |
| 1778039795 | 10.56° C | 91% | 1006.6 hPa | 1.27 mm | 3.58 m/s, 35° | 0 W/m² | - |
| 1778039491 | 10.56° C | 91% | 1006.6 hPa | 1.27 mm | 1.79 m/s, 62° | 0 W/m² | - |
| 1778039188 | 10.56° C | 91% | 1006.7 hPa | 0 mm | 0.89 m/s, 48° | 0 W/m² | - |
| 1778038885 | 10.56° C | 91% | 1006.7 hPa | 1.78 mm | 0.45 m/s, 39° | 0 W/m² | - |
| 1778038583 | 10.56° C | 91% | 1006.8 hPa | 1.27 mm | 0.45 m/s, 107° | 0 W/m² | - |
| 1778038279 | 10.56° C | 90% | 1006.8 hPa | 3.05 mm | 0.45 m/s, 57° | 0 W/m² | - |
| 1778037977 | 10.56° C | 90% | 1006.8 hPa | 3.56 mm | 2.24 m/s, 75° | 0 W/m² | - |
| 1778037674 | 11.11° C | 90% | 1006.8 hPa | 4.83 mm | 0.45 m/s, 55° | 0 W/m² | - |
| 1778037371 | 12.22° C | 90% | 1007.1 hPa | 6.1 mm | 0.89 m/s, 62° | 0 W/m² | - |
| 1778037068 | 13.33° C | 90% | 1007.1 hPa | 7.11 mm | 0.89 m/s, 314° | 0 W/m² | - |
| 1778036766 | 13.89° C | 90% | 1006.9 hPa | 6.1 mm | 0 m/s | 0 W/m² | - |
| 1778036463 | 15° C | 90% | 1006.8 hPa | 4.83 mm | 0.45 m/s, 276° | 0 W/m² | - |
* Rain latest hour (hover to see other rain measurements)
** Current wind speed in m/s (hover to see current wind gust speed)